Historyczne dane pomiarowe

Dodano dane terminowe – wersja testowa.

Dane z okresu 1951-2019

Wersja bazy: 1.34 [2019-03-16, lista zmian], aktualizacja planowana na 2019-04-15

Dane meteo z obszaru Polski uzyskane na podstawie danych udostępnionych przez Instytut Meteorologii i Gospodarki Wodnej – Państwowy Instytut Badawczy.

 

Wybierz Datę:    

       

TemperaturaWilgotnośćWiatrCiśnienieOpadyŚniegCzas trwania zjawisk
 Stacja t tx tn tng RH VA  wxwx mslp ppp RRR   cm mm wxwxwxwxwxwxwx
1994-08-14 13.4 16.1 10.0 0.0 80.8- 2.7 7.3---- 0.6------------
1994-08-13 15.1 20.1 12.4 0.0 94.5- 4.7 6.3---- 3.0------------
1994-08-12 15.7 20.4 14.4 0.0 95.0- 4.3 1.3---- 5.6------------
1994-08-11 18.3 24.8 15.3 0.0 88.8- 4.0 2.7---- 26.4------------
1994-08-10 21.4 28.5 14.4 0.0 76.0- 2.3 0.3---- 0.0------------
1994-08-09 19.4 24.4 17.8 0.0 94.8- 3.7 1.3---- 4.5------------
1994-08-08 20.2 25.9 16.8 0.0 87.5- 2.7 1.0---- 0.5------------
1994-08-07 23.8 27.5 18.7 0.0 78.5- 2.7 2.3---- 2.4------------
1994-08-06 24.4 29.9 18.2 0.0 75.5- 1.3 2.7---- 0.0------------
1994-08-05 25.7 33.0 16.8 0.0 69.8- 0.0 0.7---- 0.0------------
1994-08-04 24.3 29.0 17.8 0.0 75.8- 0.0 0.7---- 0.0------------
1994-08-03 23.1 29.5 18.3 0.0 72.5- 0.0 2.0---- 0.0------------
1994-08-02 26.8 33.5 20.2 0.0 72.3- 1.3 3.7---- 7.3------------
1994-08-01 29.8 37.5 20.2 0.0 64.3- 2.0 1.7---- 0.0------------
1994-07-31 29.3 37.0 21.3 14.4 54.0- 1.0 1.3---- 0.0------------
1994-07-30 28.6 36.5 19.2 16.4 56.3- 1.3 1.7---- 0.0------------
1994-07-29 28.2 35.5 20.2 15.5 56.5- 1.0 0.0---- 0.0------------
1994-07-28 27.5 34.5 19.7 13.1 58.8- 2.7 1.0---- 0.0------------
1994-07-27 26.5 34.5 20.2 14.1 63.0- 2.3 2.0---- 0.0------------
1994-07-26 26.4 34.0 18.7 12.3 61.5- 2.0 0.3---- 0.0------------
1994-07-25 25.0 33.5 16.8 11.6 59.8- 0.3 1.3---- 0.0------------
1994-07-24 24.9 31.0 16.8 13.1 61.8- 0.3 1.7---- 0.0------------
1994-07-23 24.2 30.0 14.9 10.1 62.8- 0.3 0.7---- 0.0------------
1994-07-22 22.8 29.5 13.9 9.4 62.0- 0.3 0.7---- 0.0------------
1994-07-21 21.9 28.0 13.4 9.9 62.0- 0.0 1.0---- 0.0------------
1994-07-20 17.9 24.4 11.5 8.4 73.5- 0.7 2.0---- 0.0------------
1994-07-19 18.8 23.4 14.4 9.1 71.5- 1.7 3.7---- 0.0------------
1994-07-18 18.9 24.9 14.9 12.9 84.5- 3.7 1.7---- 0.0------------
1994-07-17 21.4 28.5 18.3 14.4 87.0- 3.7 2.0---- 8.4------------
1994-07-16 22.9 28.0 16.3 10.4 82.0- 1.7 3.0---- 0.0------------
1994-07-15 25.0 31.0 18.7 12.5 77.5- 1.3 3.0---- 0.0------------
1994-07-14 25.7 31.9 17.3 12.5 66.5- 1.3 1.3---- 0.0------------
1994-07-13 24.0 30.0 16.8 14.4 70.8- 1.0 3.7---- 0.0------------
1994-07-12 22.7 27.0 15.3 10.9 80.3- 1.3 3.0---- 0.0------------
1994-07-11 22.0 27.5 16.3 11.4 74.3- 0.3 3.3---- 0.0------------
1994-07-10 18.6 24.9 13.4 11.5 80.8- 4.0 3.3---- 0.0------------
1994-07-09 16.1 20.4 13.2 11.4 93.0- 3.7 4.0---- 6.8------------
1994-07-08 13.4 16.2 12.4 10.7 95.3- 4.7 5.7---- 7.8------------
1994-07-07 19.3 27.0 13.9 8.3 78.8- 3.7 3.0---- 5.9------------
1994-07-06 18.9 26.5 13.9 8.9 78.0- 3.3 1.3---- 0.0------------
1994-07-05 18.4 25.2 14.9 10.4 85.3- 3.7 1.7---- 0.0------------
1994-07-04 22.8 30.0 14.4 12.1 69.0- 1.0 3.3---- 0.0------------
1994-07-03 21.3 28.5 12.4 10.4 68.5- 0.3 1.7---- 0.0------------
1994-07-02 19.5 25.7 12.4 10.9 74.3- 0.0 3.0---- 0.0------------
1994-07-01 18.6 26.5 12.4 9.4 74.0- 0.7 1.0---- 0.0------------
1994-06-30 20.6 25.8 18.3 16.8 80.8- 4.7 3.3---- 0.7------------
1994-06-29 25.9 34.2 19.2 13.5 72.5- 2.0 4.3---- 11.0------------
1994-06-28 24.5 31.4 17.4 16.3 81.5- 0.3 3.0---- 0.0------------
1994-06-27 24.8 30.9 18.9 14.4 81.5- 0.7 2.7---- 0.0------------
1994-06-26 23.7 32.4 13.9 11.9 64.0- 0.7 2.0---- 0.0------------
1994-06-25 19.2 25.9 8.0 7.9 59.3- 0.0 3.7---- 0.0------------
1994-06-24 14.2 21.4 7.5 2.1 70.8- 0.3 4.0---- 0.0------------
1994-06-23 17.0 20.9 10.0 8.3 65.3- 1.0 11.0---- 0.0------------
1994-06-22 19.8 24.9 15.8 10.9 79.5- 3.7 6.3---- 0.0------------
1994-06-21 18.0 23.4 8.5 3.5 67.3- 0.7 0.7---- 0.0------------
1994-06-20 17.0 21.4 13.4 8.5 79.5- 2.7 5.3---- 0.0------------
1994-06-19 17.3 24.4 12.4 6.7 79.3- 2.0 5.7---- 0.0------------
1994-06-18 13.0 18.9 7.0 2.9 83.0- 6.7 2.0---- 5.3------------
1994-06-17 10.3 14.4 7.0 4.4 78.8- 2.3 7.3---- 0.0------------
1994-06-16 11.3 15.9 9.0 4.9 85.5- 5.0 5.7---- 4.3------------
262.1 ms

 

Źródłem pochodzenia danych jest Instytut Meteorologii i Gospodarki Wodnej – Państwowy Instytut Badawczy. Dane Instytutu Meteorologii i Gospodarki Wodnej – Państwowego Instytutu Badawczego zostały przetworzone.

Dane źródłowe można odnaleźć na stronie https://dane.imgw.pl